Time;durP1;ratioP1;P1;durP2;ratioP2;P2;SDS_P1;SDS_P2;PMS_P1;PMS_P2;Temp;Humidity;BMP_temperature;BMP_pressure;BME280_temperature;BME280_humidity;BME280_pressure;Samples;Min_cycle;Max_cycle;Signal;HPM_P1;HPM_P2
2022/05/29 00:00:57;;;;;;;4.63;2.13;;;;;;;9.13;64.01;98453.41;5074780;28;20121;-68
2022/05/29 00:03:24;;;;;;;2.83;1.73;;;;;;;9.14;63.88;98455.00;5074980;28;20074;-68
2022/05/29 00:05:51;;;;;;;5.80;2.05;;;;;;;9.09;64.42;98453.28;5074819;28;20499;-68
2022/05/29 00:08:26;;;;;;;4.18;1.60;;;;;;;9.11;64.44;98456.53;5074982;28;20049;-69
2022/05/29 00:10:55;;;;;;;4.28;1.77;;;;;;;9.08;64.21;98453.63;5074573;28;20048;-69
2022/05/29 00:13:22;;;;;;;3.83;1.85;;;;;;;9.05;64.97;98455.16;5074823;28;20044;-69
2022/05/29 00:15:48;;;;;;;3.75;2.08;;;;;;;9.06;64.64;98459.53;5056680;28;20040;-69
2022/05/29 00:18:16;;;;;;;3.90;1.73;;;;;;;9.01;64.72;98453.44;5074934;28;20405;-73
2022/05/29 00:20:49;;;;;;;4.47;1.80;;;;;;;8.99;64.71;98455.72;5094828;28;20048;-69
2022/05/29 00:23:16;;;;;;;4.28;1.52;;;;;;;8.98;64.56;98454.94;5094605;28;20052;-69
2022/05/29 00:25:46;;;;;;;3.45;1.42;;;;;;;8.98;64.84;98459.66;5095049;28;20142;-69
2022/05/29 00:28:14;;;;;;;6.72;2.03;;;;;;;8.94;65.10;98465.09;5094697;28;20468;-69
2022/05/29 00:30:41;;;;;;;4.07;1.75;;;;;;;8.96;65.23;98470.28;5073359;28;20082;-69
2022/05/29 00:33:09;;;;;;;5.50;1.52;;;;;;;8.97;65.13;98475.50;5074438;28;20101;-68
2022/05/29 00:35:39;;;;;;;3.90;1.75;;;;;;;8.96;65.35;98473.06;5074195;28;20051;-69
2022/05/29 00:38:10;;;;;;;;;;;;;;;8.87;65.26;98475.97;5074844;28;20078;-69
2022/05/29 00:40:51;;;;;;;4.40;1.38;;;;;;;8.90;65.05;98464.19;5087242;28;19930;-69
2022/05/29 00:43:19;;;;;;;5.30;1.50;;;;;;;8.92;65.42;98469.38;5094699;28;20050;-68
2022/05/29 00:45:51;;;;;;;8.18;1.85;;;;;;;8.91;65.36;98464.97;5094053;28;20112;-69
2022/05/29 00:48:19;;;;;;;3.40;1.38;;;;;;;8.87;65.53;98475.97;5094352;28;20400;-69
2022/05/29 00:50:49;;;;;;;3.33;1.60;;;;;;;8.87;65.38;98475.97;5094301;28;20048;-69
2022/05/29 00:53:16;;;;;;;4.13;1.80;;;;;;;8.86;65.22;98477.13;5093596;28;20063;-68
2022/05/29 00:55:49;;;;;;;6.38;1.52;;;;;;;8.93;65.44;98473.75;5094393;28;20086;-69
2022/05/29 00:58:17;;;;;;;4.97;1.70;;;;;;;8.98;65.30;98468.81;5093915;28;20462;-69
2022/05/29 01:00:44;;;;;;;2.50;1.38;;;;;;;9.04;65.45;98480.47;5094068;28;20502;-69
2022/05/29 01:03:11;;;;;;;3.17;1.60;;;;;;;9.07;65.35;98466.72;5093865;28;20048;-69
2022/05/29 01:05:38;;;;;;;3.63;1.85;;;;;;;9.15;65.10;98474.09;5093909;28;20055;-70
2022/05/29 01:08:16;;;;;;;4.47;1.90;;;;;;;9.11;64.69;98470.41;5092481;28;20121;-68
2022/05/29 01:10:54;;;;;;;5.05;1.75;;;;;;;9.03;64.86;98471.34;5093876;28;20048;-69
2022/05/29 01:13:48;;;;;;;5.90;1.70;;;;;;;8.97;65.26;98471.91;5093589;28;20052;-69
2022/05/29 01:16:24;;;;;;;3.60;1.50;;;;;;;8.87;65.29;98475.16;5094045;28;20040;-69
2022/05/29 01:19:19;;;;;;;5.13;1.50;;;;;;;8.78;65.91;98477.25;5082839;28;20052;-69
2022/05/29 01:22:08;;;;;;;4.65;1.77;;;;;;;8.72;66.14;98486.94;5073650;28;20052;-69
2022/05/29 01:24:35;;;;;;;2.90;1.45;;;;;;;8.64;65.95;98485.91;5073512;28;20041;-70
2022/05/29 01:27:29;;;;;;;2.83;1.40;;;;;;;8.66;66.02;98496.66;5073680;28;20126;-70
2022/05/29 01:30:13;;;;;;;3.05;1.35;;;;;;;8.66;66.38;98493.88;5072811;28;20135;-70
2022/05/29 01:33:09;;;;;;;5.70;1.73;;;;;;;8.65;66.14;98500.56;5073152;28;20052;-69
2022/05/29 01:35:58;;;;;;;4.55;1.65;;;;;;;8.61;66.78;98489.38;5073038;28;20176;-70
2022/05/29 01:38:47;;;;;;;5.38;1.95;;;;;;;8.58;66.46;98501.13;5072822;28;20067;-68
2022/05/29 01:41:39;;;;;;;2.45;1.42;;;;;;;8.58;66.62;98506.69;5073182;28;20385;-69
2022/05/29 01:44:11;;;;;;;3.50;1.75;;;;;;;8.61;66.45;98505.19;5071568;28;20511;-69
2022/05/29 01:46:39;;;;;;;6.10;1.80;;;;;;;8.60;66.21;98509.94;5072937;28;20048;-69
2022/05/29 01:49:17;;;;;;;3.20;1.25;;;;;;;8.61;66.50;98514.31;5073252;28;20412;-69
2022/05/29 01:52:05;;;;;;;2.83;1.33;;;;;;;8.54;67.20;98519.63;5072561;28;20082;-69
2022/05/29 01:54:38;;;;;;;3.70;1.40;;;;;;;8.51;66.94;98517.53;5072792;28;20135;-74
2022/05/29 01:57:15;;;;;;;3.88;2.05;;;;;;;8.50;67.06;98524.22;5073085;28;20392;-75
2022/05/29 01:59:55;;;;;;;4.57;1.77;;;;;;;8.49;67.28;98519.00;5072998;28;20076;-74
2022/05/29 02:02:30;;;;;;;4.22;1.60;;;;;;;8.52;67.46;98513.59;5073206;28;20052;-73
2022/05/29 02:05:04;;;;;;;3.75;1.73;;;;;;;8.57;66.69;98524.47;5072687;28;20158;-74
2022/05/29 02:07:49;;;;;;;4.28;1.70;;;;;;;8.57;67.29;98526.44;5072257;28;20080;-76
2022/05/29 02:10:41;;;;;;;2.63;1.20;;;;;;;8.60;66.88;98532.09;5071660;28;20496;-75
2022/05/29 02:13:22;;;;;;;6.15;1.83;;;;;;;8.60;66.79;98540.41;5072636;28;20414;-75
2022/05/29 02:15:52;;;;;;;5.25;1.30;;;;;;;8.63;67.01;98536.97;5072572;28;20048;-74
2022/05/29 02:18:43;;;;;;;6.55;1.30;;;;;;;8.64;67.45;98533.03;5072442;28;20410;-76
2022/05/29 02:21:35;;;;;;;5.47;1.95;;;;;;;8.70;66.69;98545.50;5072581;28;20076;-74
2022/05/29 02:24:07;;;;;;;5.70;1.58;;;;;;;8.73;67.29;98544.00;5071552;28;20127;-76
2022/05/29 02:26:39;;;;;;;5.93;1.48;;;;;;;8.73;67.31;98547.59;5072305;28;20360;-75
2022/05/29 02:29:11;;;;;;;3.08;1.20;;;;;;;8.73;67.06;98555.91;5073206;28;20060;-74
2022/05/29 02:31:47;;;;;;;6.05;1.50;;;;;;;8.70;67.59;98553.81;5092468;28;20048;-74
2022/05/29 02:34:29;;;;;;;5.18;1.50;;;;;;;8.75;67.01;98569.44;5092600;28;20123;-75
2022/05/29 02:37:24;;;;;;;5.88;1.60;;;;;;;8.80;67.08;98570.00;5092379;28;20046;-74
2022/05/29 02:40:52;;;;;;;5.25;1.45;;;;;;;8.80;66.73;98575.56;5085505;28;20131;-76
2022/05/29 02:43:37;;;;;;;2.45;1.40;;;;;;;8.77;67.02;98581.00;5014702;28;20092;-74
2022/05/29 02:46:17;;;;;;;3.53;1.50;;;;;;;8.82;66.72;98581.56;5076161;28;20503;-74
2022/05/29 02:48:52;;;;;;;3.28;1.58;;;;;;;8.88;66.76;98582.97;5076403;28;20059;-75
2022/05/29 02:51:49;;;;;;;4.50;1.52;;;;;;;8.97;66.71;98586.44;5076272;28;20040;-75
2022/05/29 02:54:29;;;;;;;3.15;1.48;;;;;;;9.03;66.07;98587.03;5095759;28;20414;-71
2022/05/29 02:56:58;;;;;;;6.97;1.60;;;;;;;9.07;66.72;98597.09;5096140;28;20423;-75
2022/05/29 02:59:31;;;;;;;3.17;1.47;;;;;;;9.11;66.48;98592.47;5096559;28;20058;-75
2022/05/29 03:02:16;;;;;;;2.92;1.67;;;;;;;9.19;66.18;98594.34;5095980;28;20089;-71
2022/05/29 03:05:08;;;;;;;4.20;1.27;;;;;;;9.26;66.70;98594.56;5096386;28;20391;-72
2022/05/29 03:08:04;;;;;;;2.08;1.10;;;;;;;9.25;66.83;98598.50;5095908;28;20139;-76
2022/05/29 03:10:34;;;;;;;4.05;1.02;;;;;;;9.29;66.54;98615.25;5096012;28;20055;-72
2022/05/29 03:13:42;;;;;;;1.92;1.08;;;;;;;9.24;66.66;98607.97;5096173;28;20047;-71
2022/05/29 03:16:24;;;;;;;8.65;1.23;;;;;;;9.20;66.53;98609.81;5013666;28;20072;-74
2022/05/29 03:19:02;;;;;;;5.47;1.17;;;;;;;9.25;66.41;98615.16;5019608;28;20456;-70
2022/05/29 03:21:47;;;;;;;2.60;1.23;;;;;;;9.38;66.25;98617.91;5053392;28;20523;-70
2022/05/29 03:24:50;;;;;;;2.08;1.13;;;;;;;9.57;65.95;98624.50;5053763;28;20060;-76
2022/05/29 03:27:45;;;;;;;3.85;1.38;;;;;;;9.79;65.59;98618.44;5050993;28;20091;-71
2022/05/29 03:30:29;;;;;;;9.68;1.30;;;;;;;9.99;64.74;98623.03;5036001;28;20057;-71
2022/05/29 03:32:59;;;;;;;2.25;1.00;;;;;;;10.17;64.51;98631.94;5016732;28;20056;-69
2022/05/29 03:35:32;;;;;;;2.30;0.90;;;;;;;10.28;63.67;98635.84;5033140;28;20143;-70
2022/05/29 03:38:01;;;;;;;2.75;1.20;;;;;;;10.24;64.20;98632.13;5033818;28;20115;-70
2022/05/29 03:40:30;;;;;;;4.68;0.90;;;;;;;10.16;64.66;98633.09;5032753;28;20049;-71
2022/05/29 03:42:57;;;;;;;5.22;1.10;;;;;;;10.12;64.76;98640.50;5033583;28;20057;-72
2022/05/29 03:45:24;;;;;;;3.30;1.20;;;;;;;10.08;64.58;98639.59;5033118;28;20089;-70
2022/05/29 03:47:51;;;;;;;5.03;1.10;;;;;;;10.09;64.67;98633.69;5033001;28;20076;-75
2022/05/29 03:50:21;;;;;;;1.83;0.95;;;;;;;10.07;64.94;98638.00;5067543;28;20060;-71
2022/05/29 03:52:49;;;;;;;2.55;1.15;;;;;;;10.00;64.92;98651.63;5076271;28;20530;-72
2022/05/29 03:55:20;;;;;;;2.00;0.90;;;;;;;9.99;64.81;98650.00;5095267;28;20039;-75
2022/05/29 03:57:48;;;;;;;1.83;0.90;;;;;;;10.03;64.49;98642.59;5095040;28;20118;-73
2022/05/29 04:00:16;;;;;;;3.42;1.00;;;;;;;10.12;64.24;98654.41;5095179;28;20070;-72
2022/05/29 04:02:46;;;;;;;2.85;1.10;;;;;;;10.14;64.55;98663.22;5095221;28;20048;-72
2022/05/29 04:05:19;;;;;;;3.63;1.40;;;;;;;10.03;64.43;98645.34;5095164;28;20047;-72
2022/05/29 04:13:21;;;;;;;4.15;1.20;;;;;;;10.01;65.44;98672.69;5077615;28;20148;-72
2022/05/29 04:15:48;;;;;;;3.42;0.80;;;;;;;9.95;65.96;98674.09;5095043;28;20503;-71
2022/05/29 04:18:18;;;;;;;2.03;1.08;;;;;;;9.86;65.84;98674.22;5099493;28;20075;-70
2022/05/29 04:20:45;;;;;;;1.92;0.93;;;;;;;9.82;65.76;98678.03;5115196;28;20087;-70
2022/05/29 04:23:12;;;;;;;1.60;0.80;;;;;;;9.79;66.09;98679.56;5115177;28;20051;-71
2022/05/29 04:25:42;;;;;;;2.67;1.10;;;;;;;9.83;65.60;98685.22;5114950;28;20078;-71
2022/05/29 04:28:10;;;;;;;3.30;1.10;;;;;;;9.73;66.87;98682.91;5114933;28;20055;-70
2022/05/29 04:30:37;;;;;;;7.88;1.08;;;;;;;9.70;66.88;98691.94;5114977;28;20443;-70
2022/05/29 04:33:04;;;;;;;7.28;1.10;;;;;;;9.70;67.21;98687.19;5115264;28;20058;-70
2022/05/29 04:35:37;;;;;;;2.65;1.23;;;;;;;9.70;67.34;98691.94;5114878;28;20047;-71
2022/05/29 04:38:04;;;;;;;2.50;0.98;;;;;;;9.70;66.68;98686.38;5114772;28;20490;-71
2022/05/29 04:40:31;;;;;;;3.35;1.20;;;;;;;9.76;67.64;98682.22;5101751;28;20058;-72
2022/05/29 04:42:59;;;;;;;3.80;1.10;;;;;;;9.80;67.26;98689.50;5094424;28;20131;-71
2022/05/29 04:45:27;;;;;;;1.40;0.88;;;;;;;9.83;67.97;98691.56;5094050;28;20056;-71
2022/05/29 04:47:54;;;;;;;2.15;0.90;;;;;;;9.93;67.84;98690.31;5094446;28;20123;-71
2022/05/29 04:50:21;;;;;;;6.50;1.13;;;;;;;10.11;67.09;98694.47;5094283;28;20463;-72
2022/05/29 04:52:50;;;;;;;3.10;1.08;;;;;;;10.27;67.21;98681.50;5094235;28;20048;-72
2022/05/29 04:55:18;;;;;;;3.08;1.00;;;;;;;10.69;66.99;98691.06;5076089;28;20086;-72
2022/05/29 04:57:45;;;;;;;1.42;0.90;;;;;;;11.06;66.41;98695.28;5094115;28;20040;-72
2022/05/29 05:00:13;;;;;;;1.65;1.00;;;;;;;11.26;65.41;98696.22;5093997;28;20058;-72
2022/05/29 05:02:41;;;;;;;2.15;1.10;;;;;;;11.34;65.54;98696.03;5094243;28;20139;-72
2022/05/29 05:05:10;;;;;;;4.75;0.98;;;;;;;11.31;66.23;98702.31;5093917;28;20135;-72
2022/05/29 05:07:37;;;;;;;2.58;1.02;;;;;;;11.20;66.29;98700.44;5098583;28;20055;-72
2022/05/29 05:10:10;;;;;;;4.80;1.23;;;;;;;11.10;66.58;98718.44;5114457;28;20089;-72
2022/05/29 05:12:40;;;;;;;2.10;1.13;;;;;;;10.97;66.34;98708.56;5114238;28;20048;-71
2022/05/29 05:15:08;;;;;;;;;;;;;;;10.87;67.00;98723.00;5114245;28;20296;-72
2022/05/29 05:17:35;;;;;;;1.48;1.00;;;;;;;10.88;67.10;98722.63;5114361;28;19931;-72
2022/05/29 05:20:04;;;;;;;5.63;0.98;;;;;;;10.89;66.54;98727.03;5114088;28;20518;-72
2022/05/29 05:22:31;;;;;;;8.18;1.27;;;;;;;11.10;66.83;98733.19;5114104;28;20054;-72
2022/05/29 05:24:58;;;;;;;1.30;0.88;;;;;;;11.29;66.22;98742.81;5095907;28;20051;-75
2022/05/29 05:27:25;;;;;;;1.65;1.00;;;;;;;11.47;65.75;98733.78;5113992;28;20129;-76
2022/05/29 05:29:52;;;;;;;3.00;0.80;;;;;;;11.87;64.72;98742.81;5113741;28;20502;-76
2022/05/29 05:32:19;;;;;;;3.40;1.20;;;;;;;12.19;63.92;98744.38;5113850;28;20078;-72
2022/05/29 05:34:46;;;;;;;2.08;1.20;;;;;;;12.37;63.80;98744.78;5113588;28;20044;-73
2022/05/29 05:37:14;;;;;;;2.75;0.85;;;;;;;12.94;62.62;98731.72;5113447;28;20051;-72
2022/05/29 05:39:41;;;;;;;2.22;1.10;;;;;;;13.39;61.52;98741.41;5107923;28;20109;-75
2022/05/29 05:42:09;;;;;;;2.47;0.90;;;;;;;13.18;60.82;98744.59;5093302;28;20415;-76
2022/05/29 05:44:37;;;;;;;1.45;0.80;;;;;;;13.18;60.86;98752.16;5093228;28;20529;-71
2022/05/29 05:47:04;;;;;;;2.10;0.75;;;;;;;13.04;60.88;98751.88;5093398;28;20055;-72
2022/05/29 05:49:31;;;;;;;1.20;1.00;;;;;;;13.11;61.31;98747.22;5093283;28;20048;-72
2022/05/29 05:51:59;;;;;;;1.17;0.80;;;;;;;13.54;61.69;98748.88;5093470;28;20143;-71
2022/05/29 05:54:30;;;;;;;1.73;0.90;;;;;;;14.27;60.82;98738.97;5093230;28;20044;-73
2022/05/29 05:56:57;;;;;;;1.90;0.90;;;;;;;15.03;58.11;98748.84;5092966;28;20043;-75
2022/05/29 05:59:24;;;;;;;1.67;1.00;;;;;;;15.84;55.60;98756.16;5093926;28;20040;-78
2022/05/29 06:01:52;;;;;;;2.83;0.98;;;;;;;16.99;53.91;98749.81;5093035;28;20131;-72
2022/05/29 06:04:20;;;;;;;1.85;0.80;;;;;;;17.08;52.23;98752.28;5092982;28;20077;-76
2022/05/29 06:06:47;;;;;;;3.63;1.02;;;;;;;16.27;51.75;98763.78;5092918;28;20095;-73
2022/05/29 06:09:16;;;;;;;1.25;0.70;;;;;;;15.44;52.75;98756.16;5093345;28;20054;-72
2022/05/29 06:11:43;;;;;;;1.05;0.70;;;;;;;14.93;53.77;98759.91;5092820;28;20044;-72
2022/05/29 06:14:11;;;;;;;1.58;0.63;;;;;;;14.65;53.82;98754.72;5074865;28;20072;-72
2022/05/29 06:16:38;;;;;;;1.25;0.68;;;;;;;14.97;52.86;98769.16;5092651;28;20518;-71
2022/05/29 06:19:06;;;;;;;3.78;0.80;;;;;;;15.28;51.62;98766.75;5105650;28;20453;-77
2022/05/29 06:21:34;;;;;;;2.25;0.77;;;;;;;14.53;53.22;98780.13;5111886;28;20097;-77
2022/05/29 06:24:01;;;;;;;1.67;0.73;;;;;;;13.90;54.82;98784.66;5113339;28;20055;-72
2022/05/29 06:26:29;;;;;;;1.67;0.88;;;;;;;13.81;55.33;98781.31;5111456;28;20075;-73
2022/05/29 06:28:55;;;;;;;1.75;0.90;;;;;;;14.02;55.21;98792.84;5108544;28;20052;-71
2022/05/29 06:31:23;;;;;;;3.70;0.55;;;;;;;14.02;54.05;98792.84;5093201;28;20523;-71
2022/05/29 06:33:52;;;;;;;0.65;0.50;;;;;;;13.60;54.88;98792.09;5092415;28;20422;-72
2022/05/29 06:36:24;;;;;;;0.50;0.40;;;;;;;13.26;55.36;98798.63;5074854;28;20507;-74
2022/05/29 06:38:53;;;;;;;0.43;0.40;;;;;;;13.20;55.26;98812.03;5092976;28;20572;-74
2022/05/29 06:41:23;;;;;;;2.25;0.70;;;;;;;13.90;53.61;98807.03;5092473;28;20101;-72
2022/05/29 06:43:51;;;;;;;0.60;0.40;;;;;;;15.92;48.60;98805.53;5092478;28;20058;-75
2022/05/29 06:46:21;;;;;;;1.58;0.50;;;;;;;15.71;48.79;98812.91;5093496;28;20066;-76
2022/05/29 06:48:48;;;;;;;1.15;0.55;;;;;;;15.32;49.80;98812.44;5092875;28;20450;-75
2022/05/29 06:51:21;;;;;;;1.48;0.85;;;;;;;16.78;47.50;98817.09;5092316;28;20086;-75
2022/05/29 06:53:49;;;;;;;1.02;0.60;;;;;;;17.77;45.84;98804.34;5092524;28;20048;-75
2022/05/29 06:56:17;;;;;;;1.98;0.90;;;;;;;18.65;43.62;98819.34;5092538;28;20070;-75
2022/05/29 06:58:45;;;;;;;2.20;0.90;;;;;;;17.62;44.93;98811.94;5092806;28;20044;-76
2022/05/29 07:07:02;;;;;;;1.13;0.77;;;;;;;15.37;50.21;98836.53;5092244;28;20048;-76
2022/05/29 07:09:35;;;;;;;1.65;1.00;;;;;;;14.99;51.09;98832.03;5111400;28;20051;-75
2022/05/29 07:12:02;;;;;;;1.48;0.88;;;;;;;14.62;51.69;98839.44;5112632;28;20142;-75
2022/05/29 07:14:29;;;;;;;2.78;0.68;;;;;;;14.43;52.72;98845.16;5113210;28;20043;-75
2022/05/29 07:16:56;;;;;;;2.00;0.75;;;;;;;14.30;53.00;98843.75;5112478;28;20079;-76
2022/05/29 07:19:26;;;;;;;3.10;0.77;;;;;;;14.45;52.68;98840.00;5098135;28;20052;-76
2022/05/29 07:21:56;;;;;;;1.00;0.68;;;;;;;14.59;52.62;98848.59;5092316;28;20054;-79
2022/05/29 07:24:25;;;;;;;1.45;0.80;;;;;;;14.79;52.16;98850.13;5092286;28;20113;-76
2022/05/29 07:26:53;;;;;;;2.38;0.70;;;;;;;14.51;52.43;98849.69;5093333;28;20094;-77
2022/05/29 07:29:23;;;;;;;3.88;0.52;;;;;;;14.17;52.85;98847.84;5105085;28;20052;-75
2022/05/29 07:31:52;;;;;;;2.45;0.82;;;;;;;13.97;53.42;98860.28;5115817;28;20048;-76
2022/05/29 07:34:20;;;;;;;1.63;0.95;;;;;;;13.87;53.62;98860.88;5116361;28;20051;-79
2022/05/29 07:36:50;;;;;;;1.80;1.05;;;;;;;13.79;53.97;98861.94;5116077;28;20055;-79
2022/05/29 07:39:17;;;;;;;2.13;1.30;;;;;;;14.43;52.33;98865.56;5113787;28;20061;-77
2022/05/29 07:44:30;;;;;;;2.05;0.80;;;;;;;16.21;47.97;98865.53;5095521;28;20083;-76
2022/05/29 07:46:57;;;;;;;2.25;0.98;;;;;;;16.46;47.92;98871.44;5095351;28;20043;-76
2022/05/29 07:49:25;;;;;;;2.35;1.10;;;;;;;17.87;45.43;98868.28;5095606;28;20062;-76
2022/05/29 07:51:52;;;;;;;1.85;0.93;;;;;;;19.98;40.99;98870.97;5095249;28;20052;-76
2022/05/29 07:54:20;;;;;;;1.65;0.70;;;;;;;20.29;40.14;98868.00;5095441;28;20068;-76
2022/05/29 07:56:47;;;;;;;1.52;0.80;;;;;;;20.62;40.02;98869.34;5095498;28;20050;-76
2022/05/29 07:59:16;;;;;;;3.35;0.80;;;;;;;21.94;38.04;98869.25;5095581;28;20083;-79
2022/05/29 08:01:43;;;;;;;1.17;0.70;;;;;;;20.94;38.91;98870.72;5094954;28;20097;-76
2022/05/29 08:04:10;;;;;;;2.30;0.93;;;;;;;22.33;36.92;98871.53;5095278;28;20055;-76
2022/05/29 08:06:37;;;;;;;4.40;0.95;;;;;;;23.54;33.95;98872.75;5094787;28;20583;-76
2022/05/29 08:09:04;;;;;;;2.90;0.80;;;;;;;21.71;36.24;98881.22;5110740;28;20039;-76
2022/05/29 08:11:31;;;;;;;1.60;0.90;;;;;;;26.34;30.29;98882.00;5115165;28;20107;-75
2022/05/29 08:14:00;;;;;;;1.88;1.00;;;;;;;29.71;25.54;98869.31;5115411;28;20590;-75
2022/05/29 08:16:28;;;;;;;1.10;0.90;;;;;;;33.22;22.41;98859.59;5115208;28;20055;-75
2022/05/29 08:18:55;;;;;;;1.23;0.70;;;;;;;32.61;21.79;98869.38;5115591;28;20090;-75
2022/05/29 08:21:21;;;;;;;0.80;0.70;;;;;;;31.42;22.52;98867.22;5115058;28;20054;-73
2022/05/29 08:32:25;;;;;;;1.77;0.70;;;;;;;40.36;14.21;98862.31;5115399;28;20044;-71
2022/05/29 08:34:52;;;;;;;1.08;0.63;;;;;;;34.72;18.17;98868.00;5114943;28;20143;-71
2022/05/29 08:37:19;;;;;;;1.13;0.60;;;;;;;31.04;21.56;98867.09;5114527;28;20044;-72
2022/05/29 08:39:46;;;;;;;4.82;0.60;;;;;;;31.58;19.98;98873.34;5108136;28;20050;-74
2022/05/29 08:42:17;;;;;;;3.22;0.85;;;;;;;30.20;20.99;98865.47;5093969;28;20165;-71
2022/05/29 08:44:52;;;;;;;1.98;1.00;;;;;;;34.14;17.32;98874.22;5094178;28;20056;-72
2022/05/29 08:47:25;;;;;;;1.98;0.90;;;;;;;36.91;15.15;98868.75;5093909;28;20054;-71
2022/05/29 08:49:52;;;;;;;3.88;1.27;;;;;;;38.52;13.94;98875.59;5094118;28;20384;-70
2022/05/29 08:52:43;;;;;;;1.13;0.80;;;;;;;41.17;11.99;98884.94;5094141;28;20047;-70
2022/05/29 08:55:19;;;;;;;2.30;0.70;;;;;;;40.73;12.25;98882.72;5094024;28;20048;-71
2022/05/29 08:58:02;;;;;;;1.10;0.60;;;;;;;35.41;15.57;98887.75;5094104;28;20102;-70
2022/05/29 09:00:38;;;;;;;2.03;0.70;;;;;;;30.38;19.94;98891.25;5093900;28;20048;-69
2022/05/29 09:03:23;;;;;;;0.80;0.57;;;;;;;26.93;23.72;98894.81;5094071;28;20392;-71
2022/05/29 09:06:01;;;;;;;3.80;1.05;;;;;;;30.67;21.49;98900.13;5075390;28;20086;-71
2022/05/29 09:08:41;;;;;;;1.58;1.08;;;;;;;32.44;19.91;98891.31;5106569;28;20047;-71
2022/05/29 09:11:16;;;;;;;2.20;0.85;;;;;;;37.69;15.44;98902.16;5112835;28;20142;-74
2022/05/29 09:13:53;;;;;;;1.90;0.85;;;;;;;40.86;12.85;98906.13;5114307;28;20051;-72
2022/05/29 09:16:23;;;;;;;2.33;0.85;;;;;;;42.69;11.31;98904.09;5114128;28;20043;-71
2022/05/29 09:19:11;;;;;;;0.90;0.57;;;;;;;38.11;14.06;98907.56;5114281;28;20043;-71
2022/05/29 09:22:01;;;;;;;2.10;0.95;;;;;;;34.38;16.92;98894.97;5113741;28;20043;-70
2022/05/29 09:25:07;;;;;;;2.78;1.00;;;;;;;32.14;18.82;98898.31;5113058;28;20063;-69
2022/05/29 09:27:37;;;;;;;1.60;0.95;;;;;;;32.98;18.55;98899.34;5011398;28;20410;-69
2022/05/29 09:30:05;;;;;;;1.13;0.90;;;;;;;37.62;14.63;98903.44;5011229;28;20057;-69
2022/05/29 09:32:33;;;;;;;;;;;;;;;39.03;13.64;98904.59;5064546;28;20467;-69
2022/05/29 09:35:12;;;;;;;2.00;0.65;;;;;;;35.61;16.04;98904.94;5114050;28;19923;-70
2022/05/29 09:37:55;;;;;;;;;;;;;;;31.41;19.95;98915.28;5113982;28;20090;-70
2022/05/29 09:40:29;;;;;;;1.88;0.80;;;;;;;27.59;23.35;98909.69;5101713;28;19924;-69
2022/05/29 09:42:56;;;;;;;0.77;0.55;;;;;;;25.21;26.33;98922.63;5075187;28;20058;-69
2022/05/29 09:45:32;;;;;;;2.25;0.70;;;;;;;23.77;28.04;98920.19;5093371;28;20113;-68
2022/05/29 09:51:01;;;;;;;2.88;0.95;;;;;;;21.54;32.44;98926.72;5010913;28;20046;-69
2022/05/29 09:53:34;;;;;;;1.75;0.77;;;;;;;20.70;34.60;98921.78;5077043;28;20056;-69
2022/05/29 09:56:04;;;;;;;1.95;0.82;;;;;;;20.23;35.63;98920.47;5092620;28;20060;-69
2022/05/29 09:58:40;;;;;;;1.85;0.70;;;;;;;20.27;35.61;98926.91;5074640;28;20048;-70
2022/05/29 10:01:09;;;;;;;1.48;0.70;;;;;;;20.37;36.02;98919.59;5092965;28;20080;-69
2022/05/29 10:03:42;;;;;;;2.30;0.90;;;;;;;20.48;35.46;98921.13;5093062;28;20056;-70
2022/05/29 10:06:16;;;;;;;2.33;0.90;;;;;;;19.81;36.61;98924.25;5093618;28;20068;-69
2022/05/29 10:08:45;;;;;;;3.08;1.10;;;;;;;19.08;38.33;98921.56;5112988;28;20092;-69
2022/05/29 10:11:27;;;;;;;1.75;0.82;;;;;;;18.47;39.08;98922.75;5111507;28;20056;-69
2022/05/29 10:13:55;;;;;;;1.50;0.73;;;;;;;18.15;39.03;98924.69;5112502;28;20074;-69
2022/05/29 10:16:39;;;;;;;0.95;0.70;;;;;;;17.98;38.64;98916.97;5112263;28;20570;-69
2022/05/29 10:19:11;;;;;;;2.40;0.90;;;;;;;18.04;38.38;98915.41;5100888;28;20040;-70
2022/05/29 10:21:45;;;;;;;1.98;0.80;;;;;;;18.11;38.16;98918.22;5092445;28;20051;-69
2022/05/29 10:24:21;;;;;;;3.53;0.90;;;;;;;18.21;38.14;98923.09;5092829;28;20129;-69
2022/05/29 10:26:51;;;;;;;1.98;0.95;;;;;;;18.11;38.19;98929.47;5092507;28;20411;-69
2022/05/29 10:29:25;;;;;;;5.30;0.98;;;;;;;18.02;38.20;98927.06;5082949;28;20040;-70
2022/05/29 10:31:52;;;;;;;1.67;0.80;;;;;;;17.87;38.56;98924.56;5112932;28;20520;-69
2022/05/29 10:34:31;;;;;;;3.55;0.95;;;;;;;17.78;38.63;98935.38;5112815;28;20051;-70
2022/05/29 10:37:01;;;;;;;2.65;0.90;;;;;;;17.58;39.16;98934.88;5112720;28;20053;-70
2022/05/29 10:39:35;;;;;;;2.08;0.82;;;;;;;17.64;39.31;98926.88;5108914;28;20131;-69
2022/05/29 10:42:03;;;;;;;1.38;0.80;;;;;;;17.51;39.81;98926.41;5092468;28;20070;-69
2022/05/29 10:44:44;;;;;;;1.05;0.80;;;;;;;17.37;39.21;98933.91;5093332;28;20071;-70
2022/05/29 10:47:35;;;;;;;4.32;1.45;;;;;;;16.97;39.06;98936.84;5092247;28;20048;-71
2022/05/29 10:50:03;;;;;;;2.00;0.70;;;;;;;16.82;39.34;98929.50;5092141;28;20048;-70
2022/05/29 10:52:57;;;;;;;1.10;0.70;;;;;;;16.73;39.61;98931.84;5092539;28;20511;-70
2022/05/29 10:56:07;;;;;;;4.50;0.85;;;;;;;16.59;40.35;98938.13;5092439;28;20098;-69
2022/05/29 10:59:03;;;;;;;2.10;0.80;;;;;;;16.56;40.61;98952.94;5076362;28;20410;-70
2022/05/29 11:05:12;;;;;;;3.88;1.00;;;;;;;16.61;40.27;98955.38;5096281;28;20538;-69
2022/05/29 11:08:13;;;;;;;4.32;0.73;;;;;;;16.70;40.31;98966.31;5100968;28;20150;-69
2022/05/29 11:10:57;;;;;;;4.22;0.80;;;;;;;16.71;40.40;98974.34;5098349;28;20497;-72
2022/05/29 11:13:43;;;;;;;2.13;0.90;;;;;;;16.57;40.24;98967.78;5116639;28;20101;-69
2022/05/29 11:16:25;;;;;;;2.78;1.17;;;;;;;16.43;40.80;98986.09;5116431;28;20043;-70
2022/05/29 11:19:23;;;;;;;1.92;0.90;;;;;;;16.32;40.14;98984.34;5116448;28;20052;-70
2022/05/29 11:22:21;;;;;;;1.75;1.00;;;;;;;16.13;40.27;98993.75;5116131;28;20050;-70
2022/05/29 11:24:48;;;;;;;1.10;0.70;;;;;;;15.96;40.92;98985.91;5116580;28;20043;-69
2022/05/29 11:27:30;;;;;;;1.52;0.80;;;;;;;15.83;40.78;98990.16;5116226;28;20092;-69
2022/05/29 11:30:19;;;;;;;1.88;1.02;;;;;;;15.71;40.62;99004.41;5115910;28;20048;-70
2022/05/29 11:33:10;;;;;;;2.50;0.90;;;;;;;15.42;41.13;99027.63;5115986;28;20142;-71
2022/05/29 11:36:00;;;;;;;2.47;1.08;;;;;;;15.18;41.70;99032.78;5115813;28;20391;-71
2022/05/29 11:38:46;;;;;;;4.72;1.10;;;;;;;14.87;42.75;99036.69;5066915;28;20050;-71
2022/05/29 11:41:21;;;;;;;2.65;0.82;;;;;;;14.63;42.96;99031.44;5097001;28;20048;-69
2022/05/29 11:44:00;;;;;;;1.45;0.55;;;;;;;14.45;43.78;99022.69;5077360;28;20048;-70
2022/05/29 11:52:30;;;;;;;2.20;1.15;;;;;;;13.68;46.84;99004.28;5095137;28;20047;-69
2022/05/29 11:55:07;;;;;;;4.05;0.73;;;;;;;13.57;47.37;98988.44;5095391;28;20067;-69
2022/05/29 11:57:43;;;;;;;3.70;1.25;;;;;;;13.60;47.64;99001.69;5095657;28;20051;-71
2022/05/29 12:00:47;;;;;;;1.63;0.80;;;;;;;13.77;47.70;98998.50;5095410;28;20411;-70
2022/05/29 12:03:22;;;;;;;1.45;0.68;;;;;;;14.13;47.43;99000.84;5081391;28;20143;-68
2022/05/29 12:06:05;;;;;;;2.28;0.85;;;;;;;14.70;47.00;98997.97;5095045;28;20504;-69
2022/05/29 12:08:54;;;;;;;2.15;1.17;;;;;;;15.19;46.15;98998.00;5109813;28;20043;-69
2022/05/29 12:11:39;;;;;;;2.25;0.70;;;;;;;15.51;45.21;99004.94;5115395;28;20048;-69
2022/05/29 12:14:15;;;;;;;1.85;0.80;;;;;;;15.49;44.92;98996.91;5115084;28;20096;-68
2022/05/29 12:16:47;;;;;;;1.17;0.70;;;;;;;15.48;44.87;99011.31;5097359;28;20126;-70
2022/05/29 12:19:22;;;;;;;1.02;0.70;;;;;;;15.35;44.99;99007.88;5115071;28;20537;-70
2022/05/29 12:21:55;;;;;;;1.98;0.63;;;;;;;15.28;44.38;99012.56;5115420;28;20052;-70
2022/05/29 12:24:28;;;;;;;1.25;0.63;;;;;;;15.18;44.18;99015.97;5115456;28;20079;-69
2022/05/29 12:27:09;;;;;;;2.05;1.00;;;;;;;15.08;44.06;99014.63;5114991;28;20047;-69
2022/05/29 12:29:44;;;;;;;2.22;1.27;;;;;;;15.02;44.08;99013.34;5114865;28;20502;-70
2022/05/29 12:32:26;;;;;;;5.22;1.17;;;;;;;15.01;44.25;99030.50;5114655;28;20070;-70
2022/05/29 12:35:21;;;;;;;1.48;0.75;;;;;;;14.98;44.67;99020.06;5115023;28;20498;-69
2022/05/29 12:38:25;;;;;;;2.65;1.30;;;;;;;15.02;44.03;99026.53;5115297;28;20050;-69
2022/05/29 12:41:13;;;;;;;6.38;1.08;;;;;;;15.04;44.18;99022.16;5098809;28;20405;-70
2022/05/29 12:43:47;;;;;;;2.53;0.95;;;;;;;14.96;44.13;99022.41;5095075;28;20491;-71
2022/05/29 12:46:50;;;;;;;7.70;1.25;;;;;;;15.02;44.21;99026.53;5094741;28;20035;-69